Terminal Aerodrome Forecast
Issued by NWS

Current Version | Previous Version | Text Only | Print | Product List | Glossary Off
Versions: 1 2 3 4 5 6 7 8 9 10 11 12 13 14 15 16 17

502
FTUS41 KPBZ 232320
TAFMGW
TAF
KMGW 232320Z 2400/2424 15012KT P6SM OVC110
     FM240600 13009KT 6SM -RA OVC050
     FM241300 12012G26KT 5SM -RA OVC035
     FM241600 12012G25KT 5SM -RA OVC015
     FM241900 12015G28KT P6SM BKN025=

USA.gov is the U.S. government's official web portal to all federal, state and local government web resources and services.